sensor_id;sensor_type;location;lat;lon;timestamp;P1;durP1;ratioP1;P2;durP2;ratioP2
11135;SDS011;5622;50.840;4.948;2024-02-16T00:01:30;2.97;;;2.30;;
11135;SDS011;5622;50.840;4.948;2024-02-16T00:03:57;4.63;;;2.60;;
11135;SDS011;5622;50.840;4.948;2024-02-16T00:06:24;3.63;;;2.47;;
11135;SDS011;5622;50.840;4.948;2024-02-16T00:08:51;6.10;;;2.50;;
11135;SDS011;5622;50.840;4.948;2024-02-16T00:11:19;3.33;;;2.40;;
11135;SDS011;5622;50.840;4.948;2024-02-16T00:13:50;3.63;;;2.80;;
11135;SDS011;5622;50.840;4.948;2024-02-16T00:16:17;3.53;;;2.70;;
11135;SDS011;5622;50.840;4.948;2024-02-16T00:18:44;3.07;;;2.43;;
11135;SDS011;5622;50.840;4.948;2024-02-16T00:21:11;2.97;;;2.50;;
11135;SDS011;5622;50.840;4.948;2024-02-16T00:23:38;5.57;;;2.20;;
11135;SDS011;5622;50.840;4.948;2024-02-16T00:26:05;4.30;;;2.50;;
11135;SDS011;5622;50.840;4.948;2024-02-16T00:28:34;4.47;;;2.77;;
11135;SDS011;5622;50.840;4.948;2024-02-16T00:31:01;2.60;;;2.40;;
11135;SDS011;5622;50.840;4.948;2024-02-16T00:33:30;4.83;;;2.60;;
11135;SDS011;5622;50.840;4.948;2024-02-16T00:36:00;5.47;;;2.70;;
11135;SDS011;5622;50.840;4.948;2024-02-16T00:38:27;3.87;;;2.47;;
11135;SDS011;5622;50.840;4.948;2024-02-16T00:40:54;4.37;;;2.70;;
11135;SDS011;5622;50.840;4.948;2024-02-16T00:43:21;4.43;;;2.57;;
11135;SDS011;5622;50.840;4.948;2024-02-16T00:45:50;3.40;;;2.40;;
11135;SDS011;5622;50.840;4.948;2024-02-16T00:48:17;3.43;;;2.60;;
11135;SDS011;5622;50.840;4.948;2024-02-16T00:50:44;5.03;;;2.50;;
11135;SDS011;5622;50.840;4.948;2024-02-16T00:53:12;3.50;;;2.40;;
11135;SDS011;5622;50.840;4.948;2024-02-16T00:55:39;5.03;;;2.63;;
11135;SDS011;5622;50.840;4.948;2024-02-16T00:58:07;5.67;;;2.60;;
11135;SDS011;5622;50.840;4.948;2024-02-16T01:00:34;3.87;;;2.67;;
11135;SDS011;5622;50.840;4.948;2024-02-16T01:03:04;4.00;;;2.80;;
11135;SDS011;5622;50.840;4.948;2024-02-16T01:05:33;4.07;;;2.90;;
11135;SDS011;5622;50.840;4.948;2024-02-16T01:08:02;2.77;;;2.40;;
11135;SDS011;5622;50.840;4.948;2024-02-16T01:10:30;3.17;;;2.30;;
11135;SDS011;5622;50.840;4.948;2024-02-16T01:12:57;4.27;;;2.80;;
11135;SDS011;5622;50.840;4.948;2024-02-16T01:15:24;3.13;;;2.53;;
11135;SDS011;5622;50.840;4.948;2024-02-16T01:17:52;4.47;;;2.90;;
11135;SDS011;5622;50.840;4.948;2024-02-16T01:20:26;5.10;;;2.90;;
11135;SDS011;5622;50.840;4.948;2024-02-16T01:22:56;3.03;;;2.33;;
11135;SDS011;5622;50.840;4.948;2024-02-16T01:25:23;3.27;;;2.60;;
11135;SDS011;5622;50.840;4.948;2024-02-16T01:27:50;4.87;;;2.50;;
11135;SDS011;5622;50.840;4.948;2024-02-16T01:30:18;3.90;;;2.90;;
11135;SDS011;5622;50.840;4.948;2024-02-16T01:32:45;4.27;;;2.60;;
11135;SDS011;5622;50.840;4.948;2024-02-16T01:35:14;5.53;;;2.50;;
11135;SDS011;5622;50.840;4.948;2024-02-16T01:37:44;5.87;;;2.60;;
11135;SDS011;5622;50.840;4.948;2024-02-16T01:40:12;4.00;;;2.60;;
11135;SDS011;5622;50.840;4.948;2024-02-16T01:42:42;4.60;;;2.57;;
11135;SDS011;5622;50.840;4.948;2024-02-16T01:45:10;3.73;;;2.53;;
11135;SDS011;5622;50.840;4.948;2024-02-16T01:47:37;3.13;;;2.40;;
11135;SDS011;5622;50.840;4.948;2024-02-16T01:50:05;5.17;;;2.57;;
11135;SDS011;5622;50.840;4.948;2024-02-16T01:52:33;3.10;;;2.50;;
11135;SDS011;5622;50.840;4.948;2024-02-16T01:55:03;5.20;;;2.80;;
11135;SDS011;5622;50.840;4.948;2024-02-16T01:57:34;5.40;;;3.00;;
11135;SDS011;5622;50.840;4.948;2024-02-16T02:00:01;3.27;;;2.80;;
11135;SDS011;5622;50.840;4.948;2024-02-16T02:02:30;4.40;;;3.00;;
11135;SDS011;5622;50.840;4.948;2024-02-16T02:04:57;5.00;;;3.17;;
11135;SDS011;5622;50.840;4.948;2024-02-16T02:07:25;4.33;;;2.90;;
11135;SDS011;5622;50.840;4.948;2024-02-16T02:09:53;3.47;;;2.73;;
11135;SDS011;5622;50.840;4.948;2024-02-16T02:12:21;4.23;;;2.77;;
11135;SDS011;5622;50.840;4.948;2024-02-16T02:14:49;7.63;;;3.13;;
11135;SDS011;5622;50.840;4.948;2024-02-16T02:17:16;6.33;;;3.33;;
11135;SDS011;5622;50.840;4.948;2024-02-16T02:19:44;4.30;;;2.87;;
11135;SDS011;5622;50.840;4.948;2024-02-16T02:22:15;3.63;;;2.80;;
11135;SDS011;5622;50.840;4.948;2024-02-16T02:24:42;3.73;;;2.77;;
11135;SDS011;5622;50.840;4.948;2024-02-16T02:27:10;3.57;;;2.70;;
11135;SDS011;5622;50.840;4.948;2024-02-16T02:29:38;6.03;;;2.83;;
11135;SDS011;5622;50.840;4.948;2024-02-16T02:32:06;4.87;;;2.70;;
11135;SDS011;5622;50.840;4.948;2024-02-16T02:34:33;3.83;;;2.50;;
11135;SDS011;5622;50.840;4.948;2024-02-16T02:37:01;3.80;;;2.57;;
11135;SDS011;5622;50.840;4.948;2024-02-16T02:39:30;4.03;;;2.70;;
11135;SDS011;5622;50.840;4.948;2024-02-16T02:41:58;5.53;;;2.90;;
11135;SDS011;5622;50.840;4.948;2024-02-16T02:44:25;3.03;;;2.60;;
11135;SDS011;5622;50.840;4.948;2024-02-16T02:46:54;4.73;;;3.03;;
11135;SDS011;5622;50.840;4.948;2024-02-16T02:49:21;3.83;;;3.07;;
11135;SDS011;5622;50.840;4.948;2024-02-16T02:51:49;4.17;;;2.83;;
11135;SDS011;5622;50.840;4.948;2024-02-16T02:54:16;5.10;;;3.17;;
11135;SDS011;5622;50.840;4.948;2024-02-16T02:56:44;3.93;;;3.03;;
11135;SDS011;5622;50.840;4.948;2024-02-16T02:59:11;4.73;;;3.03;;
11135;SDS011;5622;50.840;4.948;2024-02-16T03:01:40;4.27;;;2.73;;
11135;SDS011;5622;50.840;4.948;2024-02-16T03:04:08;4.43;;;2.70;;
11135;SDS011;5622;50.840;4.948;2024-02-16T03:06:35;4.27;;;2.63;;
11135;SDS011;5622;50.840;4.948;2024-02-16T03:09:02;4.23;;;2.97;;
11135;SDS011;5622;50.840;4.948;2024-02-16T03:11:30;4.00;;;3.10;;
11135;SDS011;5622;50.840;4.948;2024-02-16T03:13:58;5.77;;;2.77;;
11135;SDS011;5622;50.840;4.948;2024-02-16T03:16:26;4.10;;;2.60;;
11135;SDS011;5622;50.840;4.948;2024-02-16T03:18:54;5.00;;;2.87;;
11135;SDS011;5622;50.840;4.948;2024-02-16T03:21:21;3.73;;;2.83;;
11135;SDS011;5622;50.840;4.948;2024-02-16T03:23:48;3.97;;;2.60;;
11135;SDS011;5622;50.840;4.948;2024-02-16T03:26:16;3.67;;;2.80;;
11135;SDS011;5622;50.840;4.948;2024-02-16T03:28:43;3.73;;;2.80;;
11135;SDS011;5622;50.840;4.948;2024-02-16T03:31:18;6.03;;;2.77;;
11135;SDS011;5622;50.840;4.948;2024-02-16T03:33:45;4.30;;;3.13;;
11135;SDS011;5622;50.840;4.948;2024-02-16T03:36:12;4.93;;;2.80;;
11135;SDS011;5622;50.840;4.948;2024-02-16T03:38:41;5.27;;;3.07;;
11135;SDS011;5622;50.840;4.948;2024-02-16T03:41:12;3.93;;;2.50;;
11135;SDS011;5622;50.840;4.948;2024-02-16T03:43:41;4.70;;;3.07;;
11135;SDS011;5622;50.840;4.948;2024-02-16T03:46:09;5.43;;;2.80;;
11135;SDS011;5622;50.840;4.948;2024-02-16T03:48:37;6.63;;;3.50;;
11135;SDS011;5622;50.840;4.948;2024-02-16T03:51:08;4.17;;;2.83;;
11135;SDS011;5622;50.840;4.948;2024-02-16T03:53:35;4.97;;;2.90;;
11135;SDS011;5622;50.840;4.948;2024-02-16T03:56:02;5.30;;;2.93;;
11135;SDS011;5622;50.840;4.948;2024-02-16T03:58:31;4.63;;;3.23;;
11135;SDS011;5622;50.840;4.948;2024-02-16T04:00:58;5.27;;;3.17;;
11135;SDS011;5622;50.840;4.948;2024-02-16T04:03:26;5.07;;;2.57;;
11135;SDS011;5622;50.840;4.948;2024-02-16T04:05:55;7.87;;;3.30;;
11135;SDS011;5622;50.840;4.948;2024-02-16T04:08:24;7.93;;;3.03;;
11135;SDS011;5622;50.840;4.948;2024-02-16T04:10:51;8.20;;;2.70;;
11135;SDS011;5622;50.840;4.948;2024-02-16T04:13:19;6.10;;;2.60;;
11135;SDS011;5622;50.840;4.948;2024-02-16T04:15:47;3.23;;;2.60;;
11135;SDS011;5622;50.840;4.948;2024-02-16T04:18:14;5.67;;;2.80;;
11135;SDS011;5622;50.840;4.948;2024-02-16T04:20:41;3.90;;;2.90;;
11135;SDS011;5622;50.840;4.948;2024-02-16T04:23:09;4.60;;;2.90;;
11135;SDS011;5622;50.840;4.948;2024-02-16T04:25:36;7.00;;;3.10;;
11135;SDS011;5622;50.840;4.948;2024-02-16T04:28:04;4.07;;;2.77;;
11135;SDS011;5622;50.840;4.948;2024-02-16T04:30:31;6.33;;;3.00;;
11135;SDS011;5622;50.840;4.948;2024-02-16T04:32:58;5.17;;;2.90;;
11135;SDS011;5622;50.840;4.948;2024-02-16T04:35:26;7.50;;;3.37;;
11135;SDS011;5622;50.840;4.948;2024-02-16T04:37:53;3.70;;;2.90;;
11135;SDS011;5622;50.840;4.948;2024-02-16T04:40:22;5.13;;;3.50;;
11135;SDS011;5622;50.840;4.948;2024-02-16T04:42:49;5.03;;;3.07;;
11135;SDS011;5622;50.840;4.948;2024-02-16T04:45:16;3.77;;;2.97;;
11135;SDS011;5622;50.840;4.948;2024-02-16T04:47:43;3.90;;;3.10;;
11135;SDS011;5622;50.840;4.948;2024-02-16T04:50:10;5.93;;;3.03;;
11135;SDS011;5622;50.840;4.948;2024-02-16T04:52:39;3.70;;;3.10;;
11135;SDS011;5622;50.840;4.948;2024-02-16T04:55:06;4.43;;;3.20;;
11135;SDS011;5622;50.840;4.948;2024-02-16T04:57:35;5.40;;;3.03;;
11135;SDS011;5622;50.840;4.948;2024-02-16T05:00:02;5.90;;;3.27;;
11135;SDS011;5622;50.840;4.948;2024-02-16T05:02:30;4.80;;;3.10;;
11135;SDS011;5622;50.840;4.948;2024-02-16T05:04:57;6.13;;;3.50;;
11135;SDS011;5622;50.840;4.948;2024-02-16T05:07:24;5.33;;;3.23;;
11135;SDS011;5622;50.840;4.948;2024-02-16T05:09:51;4.87;;;3.10;;
11135;SDS011;5622;50.840;4.948;2024-02-16T05:12:23;4.90;;;3.00;;
11135;SDS011;5622;50.840;4.948;2024-02-16T05:14:53;6.60;;;2.87;;
11135;SDS011;5622;50.840;4.948;2024-02-16T05:17:20;4.97;;;3.20;;
11135;SDS011;5622;50.840;4.948;2024-02-16T05:19:48;5.30;;;3.00;;
11135;SDS011;5622;50.840;4.948;2024-02-16T05:22:15;5.60;;;3.30;;
11135;SDS011;5622;50.840;4.948;2024-02-16T05:24:43;5.87;;;2.90;;
11135;SDS011;5622;50.840;4.948;2024-02-16T05:27:11;4.57;;;2.80;;
11135;SDS011;5622;50.840;4.948;2024-02-16T05:29:38;5.13;;;3.23;;
11135;SDS011;5622;50.840;4.948;2024-02-16T05:32:07;4.83;;;3.03;;
11135;SDS011;5622;50.840;4.948;2024-02-16T05:34:35;3.97;;;3.17;;
11135;SDS011;5622;50.840;4.948;2024-02-16T05:37:04;3.20;;;2.80;;
11135;SDS011;5622;50.840;4.948;2024-02-16T05:39:32;5.83;;;3.17;;
11135;SDS011;5622;50.840;4.948;2024-02-16T05:42:01;5.77;;;3.17;;
11135;SDS011;5622;50.840;4.948;2024-02-16T05:44:29;5.23;;;3.23;;
11135;SDS011;5622;50.840;4.948;2024-02-16T05:46:58;4.70;;;3.10;;
11135;SDS011;5622;50.840;4.948;2024-02-16T05:49:26;4.60;;;3.17;;
11135;SDS011;5622;50.840;4.948;2024-02-16T05:51:57;4.70;;;2.93;;
11135;SDS011;5622;50.840;4.948;2024-02-16T05:54:41;3.77;;;2.97;;
11135;SDS011;5622;50.840;4.948;2024-02-16T05:57:09;4.63;;;3.60;;
11135;SDS011;5622;50.840;4.948;2024-02-16T05:59:36;5.50;;;3.57;;
11135;SDS011;5622;50.840;4.948;2024-02-16T06:02:03;4.10;;;3.27;;
11135;SDS011;5622;50.840;4.948;2024-02-16T06:04:33;5.70;;;3.23;;
11135;SDS011;5622;50.840;4.948;2024-02-16T06:07:00;8.00;;;3.37;;
11135;SDS011;5622;50.840;4.948;2024-02-16T06:09:27;7.47;;;3.77;;
11135;SDS011;5622;50.840;4.948;2024-02-16T06:12:00;5.83;;;3.27;;
11135;SDS011;5622;50.840;4.948;2024-02-16T06:14:29;7.93;;;4.40;;
11135;SDS011;5622;50.840;4.948;2024-02-16T06:16:57;6.30;;;3.73;;
11135;SDS011;5622;50.840;4.948;2024-02-16T06:19:24;9.70;;;4.10;;
11135;SDS011;5622;50.840;4.948;2024-02-16T06:21:53;5.87;;;3.50;;
11135;SDS011;5622;50.840;4.948;2024-02-16T06:24:21;6.80;;;3.80;;
11135;SDS011;5622;50.840;4.948;2024-02-16T06:26:48;6.43;;;3.40;;
11135;SDS011;5622;50.840;4.948;2024-02-16T06:29:16;4.57;;;3.50;;
11135;SDS011;5622;50.840;4.948;2024-02-16T06:31:44;5.17;;;3.50;;
11135;SDS011;5622;50.840;4.948;2024-02-16T06:34:12;5.93;;;3.63;;
11135;SDS011;5622;50.840;4.948;2024-02-16T06:36:39;6.33;;;3.27;;
11135;SDS011;5622;50.840;4.948;2024-02-16T06:39:08;7.50;;;3.67;;
11135;SDS011;5622;50.840;4.948;2024-02-16T06:41:36;6.17;;;3.60;;
11135;SDS011;5622;50.840;4.948;2024-02-16T06:44:04;7.13;;;3.70;;
11135;SDS011;5622;50.840;4.948;2024-02-16T06:46:31;6.73;;;3.50;;
11135;SDS011;5622;50.840;4.948;2024-02-16T06:48:58;5.43;;;3.30;;
11135;SDS011;5622;50.840;4.948;2024-02-16T06:51:25;5.43;;;3.50;;
11135;SDS011;5622;50.840;4.948;2024-02-16T06:53:53;6.93;;;3.70;;
11135;SDS011;5622;50.840;4.948;2024-02-16T06:56:22;6.43;;;3.60;;
11135;SDS011;5622;50.840;4.948;2024-02-16T06:58:50;4.83;;;3.73;;
11135;SDS011;5622;50.840;4.948;2024-02-16T07:01:17;6.37;;;3.87;;
11135;SDS011;5622;50.840;4.948;2024-02-16T07:03:44;6.60;;;3.50;;
11135;SDS011;5622;50.840;4.948;2024-02-16T07:06:12;6.47;;;4.23;;
11135;SDS011;5622;50.840;4.948;2024-02-16T07:08:39;8.67;;;4.63;;
11135;SDS011;5622;50.840;4.948;2024-02-16T07:11:07;6.27;;;4.43;;
11135;SDS011;5622;50.840;4.948;2024-02-16T07:13:38;7.93;;;3.70;;
11135;SDS011;5622;50.840;4.948;2024-02-16T07:16:07;5.63;;;3.23;;
11135;SDS011;5622;50.840;4.948;2024-02-16T07:18:35;7.70;;;3.63;;
11135;SDS011;5622;50.840;4.948;2024-02-16T07:21:02;4.63;;;3.30;;
11135;SDS011;5622;50.840;4.948;2024-02-16T07:23:30;7.17;;;3.90;;
11135;SDS011;5622;50.840;4.948;2024-02-16T07:25:57;5.27;;;4.03;;
11135;SDS011;5622;50.840;4.948;2024-02-16T07:28:24;6.80;;;3.80;;
11135;SDS011;5622;50.840;4.948;2024-02-16T07:30:53;8.00;;;3.70;;
11135;SDS011;5622;50.840;4.948;2024-02-16T07:33:21;7.30;;;3.90;;
11135;SDS011;5622;50.840;4.948;2024-02-16T07:35:49;7.93;;;3.80;;
11135;SDS011;5622;50.840;4.948;2024-02-16T07:38:17;5.83;;;3.40;;
11135;SDS011;5622;50.840;4.948;2024-02-16T07:40:46;7.37;;;3.93;;
11135;SDS011;5622;50.840;4.948;2024-02-16T07:43:15;8.33;;;3.47;;
11135;SDS011;5622;50.840;4.948;2024-02-16T07:45:43;9.50;;;3.43;;
11135;SDS011;5622;50.840;4.948;2024-02-16T07:48:13;5.80;;;3.70;;
11135;SDS011;5622;50.840;4.948;2024-02-16T07:50:40;5.80;;;3.73;;
11135;SDS011;5622;50.840;4.948;2024-02-16T07:53:09;7.77;;;3.37;;
11135;SDS011;5622;50.840;4.948;2024-02-16T07:55:37;6.37;;;3.37;;
11135;SDS011;5622;50.840;4.948;2024-02-16T07:58:04;7.33;;;3.83;;
11135;SDS011;5622;50.840;4.948;2024-02-16T08:00:32;4.97;;;3.90;;
11135;SDS011;5622;50.840;4.948;2024-02-16T08:03:01;5.33;;;3.70;;
11135;SDS011;5622;50.840;4.948;2024-02-16T08:05:30;4.57;;;3.40;;
11135;SDS011;5622;50.840;4.948;2024-02-16T08:07:57;3.87;;;3.47;;
11135;SDS011;5622;50.840;4.948;2024-02-16T08:10:24;9.07;;;4.20;;
11135;SDS011;5622;50.840;4.948;2024-02-16T08:12:52;5.57;;;3.50;;
11135;SDS011;5622;50.840;4.948;2024-02-16T08:15:19;7.27;;;3.80;;
11135;SDS011;5622;50.840;4.948;2024-02-16T08:17:48;7.27;;;3.50;;
11135;SDS011;5622;50.840;4.948;2024-02-16T08:20:16;7.80;;;3.53;;
11135;SDS011;5622;50.840;4.948;2024-02-16T08:22:44;6.53;;;3.57;;
11135;SDS011;5622;50.840;4.948;2024-02-16T08:25:11;5.80;;;3.47;;
11135;SDS011;5622;50.840;4.948;2024-02-16T08:27:40;8.20;;;4.10;;
11135;SDS011;5622;50.840;4.948;2024-02-16T08:30:07;8.10;;;3.57;;
11135;SDS011;5622;50.840;4.948;2024-02-16T08:32:36;5.43;;;3.60;;
11135;SDS011;5622;50.840;4.948;2024-02-16T08:35:04;6.90;;;4.10;;
11135;SDS011;5622;50.840;4.948;2024-02-16T08:37:31;10.47;;;3.90;;
11135;SDS011;5622;50.840;4.948;2024-02-16T08:40:00;9.20;;;4.30;;
11135;SDS011;5622;50.840;4.948;2024-02-16T08:42:30;6.93;;;3.90;;
11135;SDS011;5622;50.840;4.948;2024-02-16T08:44:57;7.40;;;3.77;;
11135;SDS011;5622;50.840;4.948;2024-02-16T08:47:25;11.30;;;4.03;;
11135;SDS011;5622;50.840;4.948;2024-02-16T08:49:52;5.67;;;3.70;;
11135;SDS011;5622;50.840;4.948;2024-02-16T08:52:21;8.97;;;3.83;;
11135;SDS011;5622;50.840;4.948;2024-02-16T08:54:48;7.10;;;3.50;;
11135;SDS011;5622;50.840;4.948;2024-02-16T08:57:17;11.70;;;4.93;;
11135;SDS011;5622;50.840;4.948;2024-02-16T08:59:45;6.70;;;3.90;;
11135;SDS011;5622;50.840;4.948;2024-02-16T09:02:12;7.37;;;4.47;;
11135;SDS011;5622;50.840;4.948;2024-02-16T09:04:40;7.33;;;3.80;;
11135;SDS011;5622;50.840;4.948;2024-02-16T09:07:07;6.50;;;4.10;;
11135;SDS011;5622;50.840;4.948;2024-02-16T09:09:34;6.80;;;3.90;;
11135;SDS011;5622;50.840;4.948;2024-02-16T09:12:01;8.10;;;4.10;;
11135;SDS011;5622;50.840;4.948;2024-02-16T09:14:29;8.17;;;4.23;;
11135;SDS011;5622;50.840;4.948;2024-02-16T09:16:57;11.70;;;4.17;;
11135;SDS011;5622;50.840;4.948;2024-02-16T09:19:24;7.73;;;4.77;;
11135;SDS011;5622;50.840;4.948;2024-02-16T09:21:51;7.80;;;4.00;;
11135;SDS011;5622;50.840;4.948;2024-02-16T09:24:19;6.23;;;4.03;;
11135;SDS011;5622;50.840;4.948;2024-02-16T09:26:46;6.80;;;4.13;;
11135;SDS011;5622;50.840;4.948;2024-02-16T09:29:14;5.27;;;4.07;;
11135;SDS011;5622;50.840;4.948;2024-02-16T09:31:44;11.93;;;4.40;;
11135;SDS011;5622;50.840;4.948;2024-02-16T09:34:15;11.43;;;4.73;;
11135;SDS011;5622;50.840;4.948;2024-02-16T09:36:42;10.53;;;4.73;;
11135;SDS011;5622;50.840;4.948;2024-02-16T09:39:13;8.37;;;4.53;;
11135;SDS011;5622;50.840;4.948;2024-02-16T09:41:41;10.13;;;4.63;;
11135;SDS011;5622;50.840;4.948;2024-02-16T09:44:15;9.03;;;4.33;;
11135;SDS011;5622;50.840;4.948;2024-02-16T09:46:45;7.47;;;4.50;;
11135;SDS011;5622;50.840;4.948;2024-02-16T09:49:14;7.87;;;4.67;;
11135;SDS011;5622;50.840;4.948;2024-02-16T09:51:41;10.97;;;4.87;;
11135;SDS011;5622;50.840;4.948;2024-02-16T09:54:08;7.87;;;4.83;;
11135;SDS011;5622;50.840;4.948;2024-02-16T09:56:36;8.47;;;4.77;;
11135;SDS011;5622;50.840;4.948;2024-02-16T09:59:04;8.10;;;4.70;;
11135;SDS011;5622;50.840;4.948;2024-02-16T10:01:32;8.50;;;4.50;;
11135;SDS011;5622;50.840;4.948;2024-02-16T10:04:01;10.93;;;5.07;;
11135;SDS011;5622;50.840;4.948;2024-02-16T10:06:32;6.10;;;4.80;;
11135;SDS011;5622;50.840;4.948;2024-02-16T10:09:00;10.27;;;5.30;;
11135;SDS011;5622;50.840;4.948;2024-02-16T10:11:31;13.13;;;5.20;;
11135;SDS011;5622;50.840;4.948;2024-02-16T10:13:59;11.30;;;5.57;;
11135;SDS011;5622;50.840;4.948;2024-02-16T10:16:27;10.27;;;5.13;;
11135;SDS011;5622;50.840;4.948;2024-02-16T10:18:55;8.70;;;4.90;;
11135;SDS011;5622;50.840;4.948;2024-02-16T10:21:27;13.77;;;5.27;;
11135;SDS011;5622;50.840;4.948;2024-02-16T10:23:55;8.67;;;4.93;;
11135;SDS011;5622;50.840;4.948;2024-02-16T10:26:27;7.63;;;4.97;;
11135;SDS011;5622;50.840;4.948;2024-02-16T10:28:55;10.37;;;5.77;;
11135;SDS011;5622;50.840;4.948;2024-02-16T10:31:23;13.40;;;5.50;;
11135;SDS011;5622;50.840;4.948;2024-02-16T10:33:54;12.13;;;5.43;;
11135;SDS011;5622;50.840;4.948;2024-02-16T10:36:25;10.20;;;5.63;;
11135;SDS011;5622;50.840;4.948;2024-02-16T10:38:55;8.10;;;5.13;;
11135;SDS011;5622;50.840;4.948;2024-02-16T10:41:25;10.67;;;5.40;;
11135;SDS011;5622;50.840;4.948;2024-02-16T10:43:55;9.57;;;4.93;;
11135;SDS011;5622;50.840;4.948;2024-02-16T10:46:22;8.30;;;5.43;;
11135;SDS011;5622;50.840;4.948;2024-02-16T10:49:01;10.40;;;5.50;;
11135;SDS011;5622;50.840;4.948;2024-02-16T10:51:36;12.07;;;5.97;;
11135;SDS011;5622;50.840;4.948;2024-02-16T10:54:08;10.00;;;5.43;;
11135;SDS011;5622;50.840;4.948;2024-02-16T10:56:38;14.00;;;7.20;;
11135;SDS011;5622;50.840;4.948;2024-02-16T10:59:07;13.53;;;6.20;;
11135;SDS011;5622;50.840;4.948;2024-02-16T11:01:39;15.30;;;6.77;;
11135;SDS011;5622;50.840;4.948;2024-02-16T11:04:07;15.23;;;7.30;;
11135;SDS011;5622;50.840;4.948;2024-02-16T11:06:48;12.87;;;6.83;;
11135;SDS011;5622;50.840;4.948;2024-02-16T11:09:28;16.37;;;8.03;;
11135;SDS011;5622;50.840;4.948;2024-02-16T11:11:58;10.13;;;7.20;;
11135;SDS011;5622;50.840;4.948;2024-02-16T11:14:34;15.40;;;7.67;;
11135;SDS011;5622;50.840;4.948;2024-02-16T11:17:02;18.53;;;8.00;;
11135;SDS011;5622;50.840;4.948;2024-02-16T11:19:35;13.07;;;7.47;;
11135;SDS011;5622;50.840;4.948;2024-02-16T11:22:14;14.53;;;7.70;;
11135;SDS011;5622;50.840;4.948;2024-02-16T11:24:43;15.90;;;7.90;;
11135;SDS011;5622;50.840;4.948;2024-02-16T11:27:11;15.57;;;8.07;;
11135;SDS011;5622;50.840;4.948;2024-02-16T11:29:44;13.57;;;7.97;;
11135;SDS011;5622;50.840;4.948;2024-02-16T11:32:12;14.63;;;7.63;;
11135;SDS011;5622;50.840;4.948;2024-02-16T11:34:39;12.37;;;7.60;;
11135;SDS011;5622;50.840;4.948;2024-02-16T11:37:06;15.80;;;7.57;;
11135;SDS011;5622;50.840;4.948;2024-02-16T11:39:36;15.67;;;8.77;;
11135;SDS011;5622;50.840;4.948;2024-02-16T11:42:07;18.23;;;8.30;;
11135;SDS011;5622;50.840;4.948;2024-02-16T11:44:36;17.03;;;8.40;;
11135;SDS011;5622;50.840;4.948;2024-02-16T11:47:05;12.33;;;7.30;;
11135;SDS011;5622;50.840;4.948;2024-02-16T11:49:37;18.53;;;8.43;;
11135;SDS011;5622;50.840;4.948;2024-02-16T11:52:04;23.13;;;8.10;;
11135;SDS011;5622;50.840;4.948;2024-02-16T11:54:32;19.07;;;8.80;;
11135;SDS011;5622;50.840;4.948;2024-02-16T11:57:03;13.37;;;8.37;;
11135;SDS011;5622;50.840;4.948;2024-02-16T11:59:32;19.00;;;8.43;;
11135;SDS011;5622;50.840;4.948;2024-02-16T12:01:59;15.90;;;8.70;;
11135;SDS011;5622;50.840;4.948;2024-02-16T12:04:28;16.40;;;8.23;;
11135;SDS011;5622;50.840;4.948;2024-02-16T12:06:56;16.13;;;9.10;;
11135;SDS011;5622;50.840;4.948;2024-02-16T12:09:26;16.80;;;8.73;;
11135;SDS011;5622;50.840;4.948;2024-02-16T12:11:54;18.30;;;10.27;;
11135;SDS011;5622;50.840;4.948;2024-02-16T12:14:23;23.50;;;10.13;;
11135;SDS011;5622;50.840;4.948;2024-02-16T12:16:51;14.53;;;9.20;;
11135;SDS011;5622;50.840;4.948;2024-02-16T12:19:23;16.30;;;9.07;;
11135;SDS011;5622;50.840;4.948;2024-02-16T12:21:51;14.77;;;8.77;;
11135;SDS011;5622;50.840;4.948;2024-02-16T12:24:20;16.50;;;10.07;;
11135;SDS011;5622;50.840;4.948;2024-02-16T12:26:48;15.90;;;10.07;;
11135;SDS011;5622;50.840;4.948;2024-02-16T12:29:15;17.07;;;9.43;;
11135;SDS011;5622;50.840;4.948;2024-02-16T12:31:44;16.93;;;10.00;;
11135;SDS011;5622;50.840;4.948;2024-02-16T12:34:13;14.93;;;9.87;;
11135;SDS011;5622;50.840;4.948;2024-02-16T12:36:40;22.70;;;10.67;;
11135;SDS011;5622;50.840;4.948;2024-02-16T12:39:08;18.17;;;9.87;;
11135;SDS011;5622;50.840;4.948;2024-02-16T12:41:37;15.00;;;9.77;;
11135;SDS011;5622;50.840;4.948;2024-02-16T12:44:08;23.57;;;11.07;;
11135;SDS011;5622;50.840;4.948;2024-02-16T12:46:36;15.37;;;11.03;;
11135;SDS011;5622;50.840;4.948;2024-02-16T12:49:09;18.83;;;11.30;;
11135;SDS011;5622;50.840;4.948;2024-02-16T12:51:38;14.53;;;9.17;;
11135;SDS011;5622;50.840;4.948;2024-02-16T12:54:05;21.47;;;13.27;;
11135;SDS011;5622;50.840;4.948;2024-02-16T12:56:33;18.70;;;11.80;;
11135;SDS011;5622;50.840;4.948;2024-02-16T12:59:00;17.60;;;11.10;;
11135;SDS011;5622;50.840;4.948;2024-02-16T13:01:27;15.03;;;9.27;;
11135;SDS011;5622;50.840;4.948;2024-02-16T13:03:54;16.30;;;8.90;;
11135;SDS011;5622;50.840;4.948;2024-02-16T13:06:27;14.57;;;8.73;;
11135;SDS011;5622;50.840;4.948;2024-02-16T13:08:54;16.43;;;8.63;;
11135;SDS011;5622;50.840;4.948;2024-02-16T13:11:21;12.37;;;8.17;;
11135;SDS011;5622;50.840;4.948;2024-02-16T13:13:48;14.47;;;7.63;;
11135;SDS011;5622;50.840;4.948;2024-02-16T13:16:16;11.00;;;7.20;;
11135;SDS011;5622;50.840;4.948;2024-02-16T13:18:44;8.03;;;5.73;;
11135;SDS011;5622;50.840;4.948;2024-02-16T13:21:11;9.13;;;6.40;;
11135;SDS011;5622;50.840;4.948;2024-02-16T13:23:41;5.27;;;4.70;;
11135;SDS011;5622;50.840;4.948;2024-02-16T13:26:08;5.30;;;4.80;;
11135;SDS011;5622;50.840;4.948;2024-02-16T13:28:35;8.87;;;5.17;;
11135;SDS011;5622;50.840;4.948;2024-02-16T13:31:02;7.37;;;5.17;;
11135;SDS011;5622;50.840;4.948;2024-02-16T13:33:29;5.97;;;4.47;;
11135;SDS011;5622;50.840;4.948;2024-02-16T13:35:56;4.63;;;4.10;;
11135;SDS011;5622;50.840;4.948;2024-02-16T13:38:24;4.00;;;3.60;;
11135;SDS011;5622;50.840;4.948;2024-02-16T13:40:52;3.83;;;3.43;;
11135;SDS011;5622;50.840;4.948;2024-02-16T13:43:19;4.70;;;3.80;;
11135;SDS011;5622;50.840;4.948;2024-02-16T13:45:48;4.60;;;3.97;;
11135;SDS011;5622;50.840;4.948;2024-02-16T13:48:18;4.27;;;3.87;;
11135;SDS011;5622;50.840;4.948;2024-02-16T13:50:49;4.60;;;4.20;;
11135;SDS011;5622;50.840;4.948;2024-02-16T13:53:16;4.67;;;4.03;;
11135;SDS011;5622;50.840;4.948;2024-02-16T13:55:43;6.07;;;4.97;;
11135;SDS011;5622;50.840;4.948;2024-02-16T13:58:12;5.30;;;4.80;;
11135;SDS011;5622;50.840;4.948;2024-02-16T14:00:39;7.27;;;5.80;;
11135;SDS011;5622;50.840;4.948;2024-02-16T14:03:06;7.60;;;5.80;;
11135;SDS011;5622;50.840;4.948;2024-02-16T14:05:36;7.20;;;6.17;;
11135;SDS011;5622;50.840;4.948;2024-02-16T14:08:04;7.57;;;6.00;;
11135;SDS011;5622;50.840;4.948;2024-02-16T14:10:32;8.43;;;6.50;;
11135;SDS011;5622;50.840;4.948;2024-02-16T14:12:59;7.53;;;6.10;;
11135;SDS011;5622;50.840;4.948;2024-02-16T14:15:28;7.00;;;6.03;;
11135;SDS011;5622;50.840;4.948;2024-02-16T14:17:56;7.50;;;6.30;;
11135;SDS011;5622;50.840;4.948;2024-02-16T14:20:23;6.97;;;6.20;;
11135;SDS011;5622;50.840;4.948;2024-02-16T14:22:50;7.30;;;6.50;;
11135;SDS011;5622;50.840;4.948;2024-02-16T14:25:17;7.37;;;6.13;;
11135;SDS011;5622;50.840;4.948;2024-02-16T14:27:44;9.33;;;7.30;;
11135;SDS011;5622;50.840;4.948;2024-02-16T14:30:12;6.77;;;6.07;;
11135;SDS011;5622;50.840;4.948;2024-02-16T14:32:41;8.13;;;6.50;;
11135;SDS011;5622;50.840;4.948;2024-02-16T14:35:08;9.43;;;8.07;;
11135;SDS011;5622;50.840;4.948;2024-02-16T14:37:36;9.57;;;8.50;;
11135;SDS011;5622;50.840;4.948;2024-02-16T14:40:04;11.53;;;9.77;;
11135;SDS011;5622;50.840;4.948;2024-02-16T14:42:35;11.40;;;9.23;;
11135;SDS011;5622;50.840;4.948;2024-02-16T14:45:02;12.93;;;10.10;;
11135;SDS011;5622;50.840;4.948;2024-02-16T14:47:30;12.17;;;9.63;;
11135;SDS011;5622;50.840;4.948;2024-02-16T14:49:59;10.70;;;9.60;;
11135;SDS011;5622;50.840;4.948;2024-02-16T14:52:28;10.83;;;9.53;;
11135;SDS011;5622;50.840;4.948;2024-02-16T14:54:56;11.73;;;9.93;;
11135;SDS011;5622;50.840;4.948;2024-02-16T14:57:23;11.20;;;10.00;;
11135;SDS011;5622;50.840;4.948;2024-02-16T14:59:50;12.80;;;9.83;;
11135;SDS011;5622;50.840;4.948;2024-02-16T15:02:20;12.27;;;9.80;;
11135;SDS011;5622;50.840;4.948;2024-02-16T15:04:47;11.10;;;8.97;;